sensor_id;sensor_type;location;lat;lon;timestamp;pressure;altitude;pressure_sealevel;temperature;humidity
34931;BME280;21134;49.646;8.560;2022-09-13T00:01:31;100173.69;;;14.81;86.87
34931;BME280;21134;49.646;8.560;2022-09-13T00:03:57;100173.75;;;14.78;87.34
34931;BME280;21134;49.646;8.560;2022-09-13T00:06:24;100170.41;;;14.75;87.04
34931;BME280;21134;49.646;8.560;2022-09-13T00:08:50;100154.97;;;14.73;87.58
34931;BME280;21134;49.646;8.560;2022-09-13T00:11:20;100141.34;;;14.70;87.47
34931;BME280;21134;49.646;8.560;2022-09-13T00:13:49;100132.00;;;14.65;87.46
34931;BME280;21134;49.646;8.560;2022-09-13T00:16:18;100135.38;;;14.68;87.37
34931;BME280;21134;49.646;8.560;2022-09-13T00:18:45;100147.38;;;14.69;87.07
34931;BME280;21134;49.646;8.560;2022-09-13T00:21:13;100149.88;;;14.72;87.21
34931;BME280;21134;49.646;8.560;2022-09-13T00:23:43;100147.09;;;14.81;86.83
34931;BME280;21134;49.646;8.560;2022-09-13T00:26:11;100141.94;;;14.81;86.88
34931;BME280;21134;49.646;8.560;2022-09-13T00:28:39;100144.59;;;14.78;86.92
34931;BME280;21134;49.646;8.560;2022-09-13T00:31:08;100134.34;;;14.75;87.17
34931;BME280;21134;49.646;8.560;2022-09-13T00:33:35;100128.38;;;14.74;87.19
34931;BME280;21134;49.646;8.560;2022-09-13T00:36:03;100126.66;;;14.73;87.14
34931;BME280;21134;49.646;8.560;2022-09-13T00:38:30;100127.50;;;14.74;87.44
34931;BME280;21134;49.646;8.560;2022-09-13T00:40:56;100123.22;;;14.73;87.78
34931;BME280;21134;49.646;8.560;2022-09-13T00:43:40;100128.44;;;14.71;87.19
34931;BME280;21134;49.646;8.560;2022-09-13T00:46:11;100127.47;;;14.75;87.25
34931;BME280;21134;49.646;8.560;2022-09-13T00:48:39;100133.34;;;14.80;87.13
34931;BME280;21134;49.646;8.560;2022-09-13T00:51:07;100126.56;;;14.76;87.25
34931;BME280;21134;49.646;8.560;2022-09-13T00:53:38;100126.69;;;14.72;87.71
34931;BME280;21134;49.646;8.560;2022-09-13T00:56:08;100125.03;;;14.69;87.65
34931;BME280;21134;49.646;8.560;2022-09-13T00:58:39;100128.44;;;14.71;87.53
34931;BME280;21134;49.646;8.560;2022-09-13T01:01:10;100136.22;;;14.68;87.38
34931;BME280;21134;49.646;8.560;2022-09-13T01:03:39;100134.50;;;14.69;87.97
34931;BME280;21134;49.646;8.560;2022-09-13T01:06:10;100141.34;;;14.70;88.17
34931;BME280;21134;49.646;8.560;2022-09-13T01:08:40;100132.97;;;14.60;88.59
34931;BME280;21134;49.646;8.560;2022-09-13T01:11:11;100127.00;;;14.59;88.87
34931;BME280;21134;49.646;8.560;2022-09-13T01:13:42;100123.59;;;14.57;88.42
34931;BME280;21134;49.646;8.560;2022-09-13T01:16:10;100115.09;;;14.54;88.34
34931;BME280;21134;49.646;8.560;2022-09-13T01:18:37;100111.78;;;14.47;88.45
34931;BME280;21134;49.646;8.560;2022-09-13T01:27:07;100123.13;;;14.40;87.73
34931;BME280;21134;49.646;8.560;2022-09-13T01:30:09;100137.03;;;14.31;88.21
34931;BME280;21134;49.646;8.560;2022-09-13T01:32:48;100133.84;;;14.20;88.27
34931;BME280;21134;49.646;8.560;2022-09-13T01:35:23;100133.91;;;14.17;88.05
34931;BME280;21134;49.646;8.560;2022-09-13T01:37:57;100132.31;;;14.11;88.94
34931;BME280;21134;49.646;8.560;2022-09-13T01:40:41;100123.00;;;14.06;88.99
34931;BME280;21134;49.646;8.560;2022-09-13T01:43:21;100133.28;;;14.06;88.88
34931;BME280;21134;49.646;8.560;2022-09-13T01:45:56;100135.03;;;14.04;88.87
34931;BME280;21134;49.646;8.560;2022-09-13T01:48:33;100136.81;;;14.00;88.30
34931;BME280;21134;49.646;8.560;2022-09-13T01:51:05;100124.13;;;13.92;89.24
34931;BME280;21134;49.646;8.560;2022-09-13T01:53:41;100114.75;;;13.90;89.36
34931;BME280;21134;49.646;8.560;2022-09-13T01:56:19;100124.16;;;13.91;88.97
34931;BME280;21134;49.646;8.560;2022-09-13T01:58:54;100105.28;;;13.92;88.89
34931;BME280;21134;49.646;8.560;2022-09-13T02:01:27;100107.81;;;13.93;88.48
34931;BME280;21134;49.646;8.560;2022-09-13T02:03:59;100106.13;;;13.92;87.82
34931;BME280;21134;49.646;8.560;2022-09-13T02:06:31;100113.03;;;13.90;87.76
34931;BME280;21134;49.646;8.560;2022-09-13T02:09:02;100114.69;;;13.93;87.55
34931;BME280;21134;49.646;8.560;2022-09-13T02:11:32;100118.28;;;13.86;87.92
34931;BME280;21134;49.646;8.560;2022-09-13T02:14:04;100127.00;;;13.77;88.11
34931;BME280;21134;49.646;8.560;2022-09-13T02:16:35;100126.84;;;13.86;87.73
34931;BME280;21134;49.646;8.560;2022-09-13T02:19:07;100129.44;;;13.85;87.84
34931;BME280;21134;49.646;8.560;2022-09-13T02:21:41;100140.56;;;13.85;87.46
34931;BME280;21134;49.646;8.560;2022-09-13T02:24:12;100154.56;;;13.72;87.91
34931;BME280;21134;49.646;8.560;2022-09-13T02:26:43;100156.97;;;13.80;87.43
34931;BME280;21134;49.646;8.560;2022-09-13T02:29:13;100140.09;;;13.65;88.42
34931;BME280;21134;49.646;8.560;2022-09-13T02:31:47;100140.16;;;13.63;88.98
34931;BME280;21134;49.646;8.560;2022-09-13T02:34:19;100149.53;;;13.64;88.47
34931;BME280;21134;49.646;8.560;2022-09-13T02:36:48;100158.25;;;13.57;88.49
34931;BME280;21134;49.646;8.560;2022-09-13T02:39:18;100158.16;;;13.63;88.47
34931;BME280;21134;49.646;8.560;2022-09-13T02:41:51;100165.94;;;13.59;87.97
34931;BME280;21134;49.646;8.560;2022-09-13T02:44:24;100170.38;;;13.51;88.68
34931;BME280;21134;49.646;8.560;2022-09-13T02:47:04;100162.63;;;13.52;88.60
34931;BME280;21134;49.646;8.560;2022-09-13T02:49:41;100161.66;;;13.58;88.41
34931;BME280;21134;49.646;8.560;2022-09-13T02:52:15;100167.66;;;13.60;87.60
34931;BME280;21134;49.646;8.560;2022-09-13T02:54:50;100168.47;;;13.60;87.52
34931;BME280;21134;49.646;8.560;2022-09-13T02:57:22;100166.03;;;13.53;87.64
34931;BME280;21134;49.646;8.560;2022-09-13T02:59:52;100159.31;;;13.47;87.90
34931;BME280;21134;49.646;8.560;2022-09-13T03:02:22;100157.47;;;13.52;88.20
34931;BME280;21134;49.646;8.560;2022-09-13T03:04:51;100154.91;;;13.54;88.17
34931;BME280;21134;49.646;8.560;2022-09-13T03:07:17;100147.91;;;13.60;88.51
34931;BME280;21134;49.646;8.560;2022-09-13T03:09:46;100158.16;;;13.62;88.34
34931;BME280;21134;49.646;8.560;2022-09-13T03:12:24;100160.72;;;13.62;88.34
34931;BME280;21134;49.646;8.560;2022-09-13T03:15:03;100163.34;;;13.59;88.72
34931;BME280;21134;49.646;8.560;2022-09-13T03:17:40;100157.41;;;13.57;89.00
34931;BME280;21134;49.646;8.560;2022-09-13T03:20:13;100147.16;;;13.55;89.17
34931;BME280;21134;49.646;8.560;2022-09-13T03:23:02;100133.34;;;13.61;89.17
34931;BME280;21134;49.646;8.560;2022-09-13T03:25:48;100121.28;;;13.64;89.01
34931;BME280;21134;49.646;8.560;2022-09-13T03:28:24;100115.19;;;13.68;89.08
34931;BME280;21134;49.646;8.560;2022-09-13T03:31:00;100113.47;;;13.69;89.32
34931;BME280;21134;49.646;8.560;2022-09-13T03:33:37;100112.53;;;13.73;89.40
34931;BME280;21134;49.646;8.560;2022-09-13T03:36:10;100119.34;;;13.76;88.95
34931;BME280;21134;49.646;8.560;2022-09-13T03:38:41;100105.63;;;13.75;89.15
34931;BME280;21134;49.646;8.560;2022-09-13T03:41:14;100107.34;;;13.75;89.40
34931;BME280;21134;49.646;8.560;2022-09-13T03:43:45;100107.44;;;13.70;89.63
34931;BME280;21134;49.646;8.560;2022-09-13T03:46:17;100113.44;;;13.70;90.04
34931;BME280;21134;49.646;8.560;2022-09-13T03:48:48;100111.69;;;13.72;90.32
34931;BME280;21134;49.646;8.560;2022-09-13T03:51:15;100110.81;;;13.73;90.45
34931;BME280;21134;49.646;8.560;2022-09-13T03:53:53;100115.91;;;13.75;90.70
34931;BME280;21134;49.646;8.560;2022-09-13T03:56:21;100104.63;;;13.82;90.31
34931;BME280;21134;49.646;8.560;2022-09-13T03:58:48;100114.03;;;13.83;90.37
34931;BME280;21134;49.646;8.560;2022-09-13T04:01:17;100105.44;;;13.84;90.24
34931;BME280;21134;49.646;8.560;2022-09-13T04:03:44;100104.59;;;13.84;90.36
34931;BME280;21134;49.646;8.560;2022-09-13T04:06:12;100100.34;;;13.83;90.53
34931;BME280;21134;49.646;8.560;2022-09-13T04:08:39;100092.56;;;13.86;90.43
34931;BME280;21134;49.646;8.560;2022-09-13T04:11:05;100100.22;;;13.87;90.41
34931;BME280;21134;49.646;8.560;2022-09-13T04:13:33;100105.38;;;13.87;90.39
34931;BME280;21134;49.646;8.560;2022-09-13T04:16:01;100102.72;;;13.92;90.75
34931;BME280;21134;49.646;8.560;2022-09-13T04:18:27;100108.75;;;13.89;90.19
34931;BME280;21134;49.646;8.560;2022-09-13T04:20:55;100108.59;;;13.97;90.03
34931;BME280;21134;49.646;8.560;2022-09-13T04:23:24;100104.28;;;13.99;89.78
34931;BME280;21134;49.646;8.560;2022-09-13T04:25:52;100105.97;;;14.00;89.90
34931;BME280;21134;49.646;8.560;2022-09-13T04:28:20;100099.97;;;14.01;90.08
34931;BME280;21134;49.646;8.560;2022-09-13T04:30:47;100097.34;;;14.03;89.74
34931;BME280;21134;49.646;8.560;2022-09-13T04:33:15;100096.44;;;14.04;89.28
34931;BME280;21134;49.646;8.560;2022-09-13T04:35:42;100105.88;;;14.05;89.29
34931;BME280;21134;49.646;8.560;2022-09-13T04:38:09;100107.63;;;14.03;89.42
34931;BME280;21134;49.646;8.560;2022-09-13T04:40:36;100105.91;;;14.03;89.46
34931;BME280;21134;49.646;8.560;2022-09-13T04:43:03;100105.88;;;14.05;89.62
34931;BME280;21134;49.646;8.560;2022-09-13T04:45:30;100107.59;;;14.04;89.15
34931;BME280;21134;49.646;8.560;2022-09-13T04:47:56;100108.53;;;14.00;89.67
34931;BME280;21134;49.646;8.560;2022-09-13T04:50:23;100110.25;;;14.00;89.96
34931;BME280;21134;49.646;8.560;2022-09-13T04:52:53;100100.88;;;13.99;89.80
34931;BME280;21134;49.646;8.560;2022-09-13T04:55:20;100101.69;;;13.99;89.72
34931;BME280;21134;49.646;8.560;2022-09-13T04:57:51;100112.00;;;13.99;89.62
34931;BME280;21134;49.646;8.560;2022-09-13T05:00:18;100113.81;;;13.94;90.04
34931;BME280;21134;49.646;8.560;2022-09-13T05:02:45;100120.72;;;13.92;90.45
34931;BME280;21134;49.646;8.560;2022-09-13T05:05:11;100129.28;;;13.91;90.46
34931;BME280;21134;49.646;8.560;2022-09-13T05:07:39;100125.03;;;13.90;90.51
34931;BME280;21134;49.646;8.560;2022-09-13T05:10:06;100131.09;;;13.87;90.71
34931;BME280;21134;49.646;8.560;2022-09-13T05:12:33;100125.81;;;13.93;90.71
34931;BME280;21134;49.646;8.560;2022-09-13T05:15:01;100122.31;;;13.98;90.35
34931;BME280;21134;49.646;8.560;2022-09-13T05:17:28;100137.53;;;14.07;90.14
34931;BME280;21134;49.646;8.560;2022-09-13T05:19:55;100135.78;;;14.10;89.83
34931;BME280;21134;49.646;8.560;2022-09-13T05:22:21;100142.56;;;14.13;89.91
34931;BME280;21134;49.646;8.560;2022-09-13T05:24:48;100142.50;;;14.16;89.75
34931;BME280;21134;49.646;8.560;2022-09-13T05:27:14;100145.13;;;14.14;90.47
34931;BME280;21134;49.646;8.560;2022-09-13T05:29:41;100145.00;;;14.19;90.20
34931;BME280;21134;49.646;8.560;2022-09-13T05:32:09;100150.91;;;14.24;90.10
34931;BME280;21134;49.646;8.560;2022-09-13T05:34:36;100149.19;;;14.25;90.07
34931;BME280;21134;49.646;8.560;2022-09-13T05:37:03;100157.63;;;14.31;90.15
34931;BME280;21134;49.646;8.560;2022-09-13T05:39:29;100159.22;;;14.37;89.63
34931;BME280;21134;49.646;8.560;2022-09-13T05:41:56;100164.25;;;14.41;89.84
34931;BME280;21134;49.646;8.560;2022-09-13T05:44:23;100155.59;;;14.46;89.66
34931;BME280;21134;49.646;8.560;2022-09-13T05:46:49;100138.38;;;14.48;90.12
34931;BME280;21134;49.646;8.560;2022-09-13T05:49:17;100138.31;;;14.52;90.22
34931;BME280;21134;49.646;8.560;2022-09-13T05:51:43;100137.28;;;14.59;89.63
34931;BME280;21134;49.646;8.560;2022-09-13T05:54:10;100152.59;;;14.65;89.59
34931;BME280;21134;49.646;8.560;2022-09-13T05:56:37;100149.09;;;14.68;89.92
34931;BME280;21134;49.646;8.560;2022-09-13T05:59:04;100160.19;;;14.72;89.91
34931;BME280;21134;49.646;8.560;2022-09-13T06:01:30;100157.53;;;14.75;89.88
34931;BME280;21134;49.646;8.560;2022-09-13T06:03:57;100159.16;;;14.79;89.96
34931;BME280;21134;49.646;8.560;2022-09-13T06:06:26;100158.94;;;14.88;89.92
34931;BME280;21134;49.646;8.560;2022-09-13T06:08:53;100148.50;;;14.93;89.75
34931;BME280;21134;49.646;8.560;2022-09-13T06:11:20;100146.63;;;14.99;89.31
34931;BME280;21134;49.646;8.560;2022-09-13T06:13:47;100156.00;;;15.02;89.50
34931;BME280;21134;49.646;8.560;2022-09-13T06:16:14;100150.63;;;15.11;88.95
34931;BME280;21134;49.646;8.560;2022-09-13T06:18:41;100142.66;;;15.20;88.86
34931;BME280;21134;49.646;8.560;2022-09-13T06:21:10;100142.59;;;15.23;88.45
34931;BME280;21134;49.646;8.560;2022-09-13T06:23:39;100138.06;;;15.31;88.87
34931;BME280;21134;49.646;8.560;2022-09-13T06:26:07;100140.50;;;15.38;88.11
34931;BME280;21134;49.646;8.560;2022-09-13T06:28:34;100148.06;;;15.44;88.30
34931;BME280;21134;49.646;8.560;2022-09-13T06:31:02;100146.31;;;15.46;88.67
34931;BME280;21134;49.646;8.560;2022-09-13T06:33:30;100142.81;;;15.47;88.59
34931;BME280;21134;49.646;8.560;2022-09-13T06:35:59;100146.22;;;15.49;88.74
34931;BME280;21134;49.646;8.560;2022-09-13T06:38:26;100147.97;;;15.48;88.08
34931;BME280;21134;49.646;8.560;2022-09-13T06:41:00;100142.63;;;15.54;88.73
34931;BME280;21134;49.646;8.560;2022-09-13T06:43:27;100139.09;;;15.57;88.25
34931;BME280;21134;49.646;8.560;2022-09-13T06:45:58;100133.84;;;15.62;88.93
34931;BME280;21134;49.646;8.560;2022-09-13T06:48:24;100138.84;;;15.66;88.21
34931;BME280;21134;49.646;8.560;2022-09-13T06:50:51;100139.63;;;15.71;88.61
34931;BME280;21134;49.646;8.560;2022-09-13T06:53:18;100145.44;;;15.78;88.63
34931;BME280;21134;49.646;8.560;2022-09-13T06:55:44;100146.25;;;15.80;87.87
34931;BME280;21134;49.646;8.560;2022-09-13T06:58:12;100150.34;;;15.87;87.80
34931;BME280;21134;49.646;8.560;2022-09-13T07:00:38;100149.94;;;16.01;87.79
34931;BME280;21134;49.646;8.560;2022-09-13T07:03:05;100159.31;;;16.05;87.49
34931;BME280;21134;49.646;8.560;2022-09-13T07:05:31;100153.88;;;16.14;87.15
34931;BME280;21134;49.646;8.560;2022-09-13T07:07:58;100151.19;;;16.17;86.96
34931;BME280;21134;49.646;8.560;2022-09-13T07:10:24;100161.34;;;16.23;87.09
34931;BME280;21134;49.646;8.560;2022-09-13T07:12:51;100160.38;;;16.27;87.86
34931;BME280;21134;49.646;8.560;2022-09-13T07:15:18;100168.03;;;16.31;87.34
34931;BME280;21134;49.646;8.560;2022-09-13T07:17:45;100174.63;;;16.39;87.61
34931;BME280;21134;49.646;8.560;2022-09-13T07:20:11;100180.56;;;16.43;86.46
34931;BME280;21134;49.646;8.560;2022-09-13T07:22:38;100175.38;;;16.43;85.99
34931;BME280;21134;49.646;8.560;2022-09-13T07:25:05;100179.59;;;16.47;86.09
34931;BME280;21134;49.646;8.560;2022-09-13T07:27:32;100184.56;;;16.53;85.39
34931;BME280;21134;49.646;8.560;2022-09-13T07:29:58;100179.16;;;16.61;85.13
34931;BME280;21134;49.646;8.560;2022-09-13T07:32:26;100173.81;;;16.67;84.99
34931;BME280;21134;49.646;8.560;2022-09-13T07:34:52;100175.34;;;16.72;85.34
34931;BME280;21134;49.646;8.560;2022-09-13T07:37:19;100171.75;;;16.78;84.69
34931;BME280;21134;49.646;8.560;2022-09-13T07:39:45;100174.13;;;16.84;83.93
34931;BME280;21134;49.646;8.560;2022-09-13T07:42:13;100171.97;;;16.99;84.20
34931;BME280;21134;49.646;8.560;2022-09-13T07:44:39;100176.78;;;17.09;83.79
34931;BME280;21134;49.646;8.560;2022-09-13T07:47:06;100171.28;;;17.20;83.51
34931;BME280;21134;49.646;8.560;2022-09-13T07:49:33;100171.28;;;17.20;83.54
34931;BME280;21134;49.646;8.560;2022-09-13T07:52:00;100159.84;;;17.26;83.32
34931;BME280;21134;49.646;8.560;2022-09-13T07:54:27;100164.25;;;17.24;83.73
34931;BME280;21134;49.646;8.560;2022-09-13T07:56:54;100154.84;;;17.21;83.56
34931;BME280;21134;49.646;8.560;2022-09-13T07:59:20;100146.81;;;17.29;83.59
34931;BME280;21134;49.646;8.560;2022-09-13T08:01:49;100151.25;;;17.25;83.17
34931;BME280;21134;49.646;8.560;2022-09-13T08:04:17;100130.44;;;17.30;83.15
34931;BME280;21134;49.646;8.560;2022-09-13T08:06:47;100133.75;;;17.33;82.39
34931;BME280;21134;49.646;8.560;2022-09-13T08:09:14;100146.59;;;17.35;82.59
34931;BME280;21134;49.646;8.560;2022-09-13T08:11:42;100153.94;;;17.47;82.56
34931;BME280;21134;49.646;8.560;2022-09-13T08:14:11;100151.03;;;17.56;82.36
34931;BME280;21134;49.646;8.560;2022-09-13T08:16:38;100145.44;;;17.69;81.97
34931;BME280;21134;49.646;8.560;2022-09-13T08:19:07;100142.56;;;17.78;81.72
34931;BME280;21134;49.646;8.560;2022-09-13T08:21:37;100136.47;;;17.79;80.72
34931;BME280;21134;49.646;8.560;2022-09-13T08:24:07;100126.59;;;17.90;80.60
34931;BME280;21134;49.646;8.560;2022-09-13T08:26:37;100130.31;;;18.05;79.58
34931;BME280;21134;49.646;8.560;2022-09-13T08:29:05;100123.22;;;18.10;79.60
34931;BME280;21134;49.646;8.560;2022-09-13T08:31:32;100117.03;;;18.14;78.96
34931;BME280;21134;49.646;8.560;2022-09-13T08:33:59;100103.63;;;18.26;78.81
34931;BME280;21134;49.646;8.560;2022-09-13T08:36:27;100111.19;;;18.31;79.02
34931;BME280;21134;49.646;8.560;2022-09-13T08:38:57;100115.50;;;18.32;78.74
34931;BME280;21134;49.646;8.560;2022-09-13T08:41:43;100116.56;;;18.48;78.62
34931;BME280;21134;49.646;8.560;2022-09-13T08:44:23;100125.16;;;18.71;77.84
34931;BME280;21134;49.646;8.560;2022-09-13T08:46:52;100130.66;;;18.85;77.75
34931;BME280;21134;49.646;8.560;2022-09-13T08:49:24;100133.41;;;19.02;77.32
34931;BME280;21134;49.646;8.560;2022-09-13T08:51:53;100135.66;;;19.10;77.21
34931;BME280;21134;49.646;8.560;2022-09-13T08:54:21;100137.84;;;19.21;76.69
34931;BME280;21134;49.646;8.560;2022-09-13T08:56:54;100130.50;;;19.31;76.39
34931;BME280;21134;49.646;8.560;2022-09-13T08:59:36;100136.06;;;19.42;76.24
34931;BME280;21134;49.646;8.560;2022-09-13T09:02:15;100144.28;;;19.51;75.84
34931;BME280;21134;49.646;8.560;2022-09-13T09:04:51;100148.69;;;19.49;75.45
34931;BME280;21134;49.646;8.560;2022-09-13T09:07:23;100152.34;;;19.66;74.67
34931;BME280;21134;49.646;8.560;2022-09-13T09:09:54;100150.69;;;19.63;75.10
34931;BME280;21134;49.646;8.560;2022-09-13T09:12:29;100142.66;;;19.69;75.40
34931;BME280;21134;49.646;8.560;2022-09-13T09:15:00;100135.59;;;19.73;74.40
34931;BME280;21134;49.646;8.560;2022-09-13T09:17:33;100135.22;;;19.81;74.81
34931;BME280;21134;49.646;8.560;2022-09-13T09:20:13;100139.75;;;19.96;74.99
34931;BME280;21134;49.646;8.560;2022-09-13T09:22:43;100135.47;;;20.14;73.98
34931;BME280;21134;49.646;8.560;2022-09-13T09:25:11;100130.00;;;20.20;73.20
34931;BME280;21134;49.646;8.560;2022-09-13T09:27:39;100122.19;;;20.20;72.59
34931;BME280;21134;49.646;8.560;2022-09-13T09:30:11;100129.84;;;20.23;72.18
34931;BME280;21134;49.646;8.560;2022-09-13T09:33:08;100130.69;;;20.24;72.44
34931;BME280;21134;49.646;8.560;2022-09-13T09:35:46;100128.84;;;20.26;72.35
34931;BME280;21134;49.646;8.560;2022-09-13T09:38:30;100135.31;;;20.36;72.12
34931;BME280;21134;49.646;8.560;2022-09-13T09:40:59;100133.72;;;20.51;71.79
34931;BME280;21134;49.646;8.560;2022-09-13T09:43:32;100129.88;;;20.59;71.89
34931;BME280;21134;49.646;8.560;2022-09-13T09:46:02;100126.69;;;20.72;72.16
34931;BME280;21134;49.646;8.560;2022-09-13T09:48:38;100133.13;;;20.82;71.08
34931;BME280;21134;49.646;8.560;2022-09-13T09:51:07;100136.25;;;20.88;70.62
34931;BME280;21134;49.646;8.560;2022-09-13T09:53:38;100144.69;;;20.94;70.60
34931;BME280;21134;49.646;8.560;2022-09-13T09:56:18;100143.91;;;20.92;70.62
34931;BME280;21134;49.646;8.560;2022-09-13T09:58:47;100148.50;;;21.04;70.47
34931;BME280;21134;49.646;8.560;2022-09-13T10:01:18;100138.09;;;21.04;70.36
34931;BME280;21134;49.646;8.560;2022-09-13T10:03:51;100140.53;;;21.24;69.33
34931;BME280;21134;49.646;8.560;2022-09-13T10:06:21;100131.56;;;21.30;69.94
34931;BME280;21134;49.646;8.560;2022-09-13T10:08:54;100137.47;;;21.51;68.98
34931;BME280;21134;49.646;8.560;2022-09-13T10:11:37;100135.81;;;21.66;67.97
34931;BME280;21134;49.646;8.560;2022-09-13T10:14:05;100132.50;;;21.79;67.18
34931;BME280;21134;49.646;8.560;2022-09-13T10:16:32;100132.00;;;22.04;67.48
34931;BME280;21134;49.646;8.560;2022-09-13T10:19:22;100128.59;;;22.20;66.42
34931;BME280;21134;49.646;8.560;2022-09-13T10:21:59;100126.97;;;22.17;65.63
34931;BME280;21134;49.646;8.560;2022-09-13T10:24:26;100123.59;;;22.15;65.25
34931;BME280;21134;49.646;8.560;2022-09-13T10:26:53;100122.69;;;22.16;65.47
34931;BME280;21134;49.646;8.560;2022-09-13T10:29:22;100125.13;;;22.19;65.77
34931;BME280;21134;49.646;8.560;2022-09-13T10:31:51;100134.47;;;22.23;65.81
34931;BME280;21134;49.646;8.560;2022-09-13T10:34:21;100126.63;;;22.39;65.48
34931;BME280;21134;49.646;8.560;2022-09-13T10:36:53;100137.16;;;22.38;65.22
34931;BME280;21134;49.646;8.560;2022-09-13T10:39:23;100137.38;;;22.49;65.16
34931;BME280;21134;49.646;8.560;2022-09-13T10:41:53;100150.84;;;22.57;65.10
34931;BME280;21134;49.646;8.560;2022-09-13T10:44:28;100159.59;;;22.56;65.69
34931;BME280;21134;49.646;8.560;2022-09-13T10:46:59;100159.75;;;22.69;65.83
34931;BME280;21134;49.646;8.560;2022-09-13T10:49:45;100154.38;;;22.72;65.41
34931;BME280;21134;49.646;8.560;2022-09-13T10:52:33;100162.44;;;22.67;66.04
34931;BME280;21134;49.646;8.560;2022-09-13T10:55:28;100166.16;;;22.63;65.66
34931;BME280;21134;49.646;8.560;2022-09-13T10:58:11;100159.44;;;22.43;65.53
34931;BME280;21134;49.646;8.560;2022-09-13T11:03:39;100150.84;;;22.10;67.17
34931;BME280;21134;49.646;8.560;2022-09-13T11:06:16;100154.53;;;22.05;68.34
34931;BME280;21134;49.646;8.560;2022-09-13T11:08:52;100149.06;;;22.10;69.23
34931;BME280;21134;49.646;8.560;2022-09-13T11:11:26;100149.59;;;22.17;70.30
34931;BME280;21134;49.646;8.560;2022-09-13T11:14:05;100148.81;;;22.15;69.58
34931;BME280;21134;49.646;8.560;2022-09-13T11:16:49;100149.06;;;22.10;69.40
34931;BME280;21134;49.646;8.560;2022-09-13T11:19:30;100141.56;;;22.04;68.32
34931;BME280;21134;49.646;8.560;2022-09-13T11:22:20;100122.84;;;21.97;68.22
34931;BME280;21134;49.646;8.560;2022-09-13T11:24:59;100117.38;;;21.86;70.51
34931;BME280;21134;49.646;8.560;2022-09-13T11:27:33;100120.31;;;21.80;73.73
34931;BME280;21134;49.646;8.560;2022-09-13T11:30:15;100124.41;;;21.68;74.40
34931;BME280;21134;49.646;8.560;2022-09-13T11:33:02;100132.84;;;21.56;75.44
34931;BME280;21134;49.646;8.560;2022-09-13T11:35:41;100113.44;;;21.46;75.34
34931;BME280;21134;49.646;8.560;2022-09-13T11:38:21;100120.78;;;21.38;76.25
34931;BME280;21134;49.646;8.560;2022-09-13T11:40:57;100122.66;;;21.34;77.55
34931;BME280;21134;49.646;8.560;2022-09-13T11:43:50;100111.41;;;21.33;79.46
34931;BME280;21134;49.646;8.560;2022-09-13T11:46:24;100107.06;;;21.34;80.96
34931;BME280;21134;49.646;8.560;2022-09-13T11:49:32;100108.63;;;21.38;81.41
34931;BME280;21134;49.646;8.560;2022-09-13T11:52:09;100099.06;;;21.39;81.51
34931;BME280;21134;49.646;8.560;2022-09-13T11:54:49;100088.81;;;21.35;81.19
34931;BME280;21134;49.646;8.560;2022-09-13T11:57:20;100078.75;;;21.28;82.17
34931;BME280;21134;49.646;8.560;2022-09-13T11:59:54;100075.25;;;21.29;82.22
34931;BME280;21134;49.646;8.560;2022-09-13T12:02:26;100082.78;;;21.33;81.74
34931;BME280;21134;49.646;8.560;2022-09-13T12:04:59;100067.72;;;21.40;79.99
34931;BME280;21134;49.646;8.560;2022-09-13T12:07:35;100067.34;;;21.48;80.49
34931;BME280;21134;49.646;8.560;2022-09-13T12:10:13;100066.16;;;21.53;79.73
34931;BME280;21134;49.646;8.560;2022-09-13T12:12:41;100072.91;;;21.57;79.32
34931;BME280;21134;49.646;8.560;2022-09-13T12:15:15;100070.88;;;21.63;79.73
34931;BME280;21134;49.646;8.560;2022-09-13T12:17:44;100067.53;;;21.61;79.19
34931;BME280;21134;49.646;8.560;2022-09-13T12:20:17;100063.06;;;21.63;78.81
34931;BME280;21134;49.646;8.560;2022-09-13T12:22:46;100057.63;;;21.67;78.37
34931;BME280;21134;49.646;8.560;2022-09-13T12:25:18;100046.38;;;21.67;77.49
34931;BME280;21134;49.646;8.560;2022-09-13T12:27:53;100042.50;;;21.74;77.66
34931;BME280;21134;49.646;8.560;2022-09-13T12:30:22;100042.34;;;21.77;77.92
34931;BME280;21134;49.646;8.560;2022-09-13T12:32:50;100042.16;;;21.80;76.53
34931;BME280;21134;49.646;8.560;2022-09-13T12:35:23;100031.06;;;21.92;76.72
34931;BME280;21134;49.646;8.560;2022-09-13T12:38:15;100029.19;;;22.10;76.09
34931;BME280;21134;49.646;8.560;2022-09-13T12:41:14;100027.69;;;22.22;75.20
34931;BME280;21134;49.646;8.560;2022-09-13T12:44:03;100029.78;;;22.31;75.50
34931;BME280;21134;49.646;8.560;2022-09-13T12:46:56;100013.53;;;22.42;75.38
34931;BME280;21134;49.646;8.560;2022-09-13T12:49:44;100020.16;;;22.47;74.30
34931;BME280;21134;49.646;8.560;2022-09-13T12:52:32;100019.63;;;22.57;74.20
34931;BME280;21134;49.646;8.560;2022-09-13T12:55:32;100024.50;;;22.77;71.95
34931;BME280;21134;49.646;8.560;2022-09-13T12:58:16;100025.53;;;22.89;71.78
34931;BME280;21134;49.646;8.560;2022-09-13T13:01:03;100020.31;;;22.89;70.61
34931;BME280;21134;49.646;8.560;2022-09-13T13:03:40;100026.03;;;22.95;69.82
34931;BME280;21134;49.646;8.560;2022-09-13T13:06:13;100018.59;;;23.04;68.93
34931;BME280;21134;49.646;8.560;2022-09-13T13:08:50;100015.91;;;23.05;68.58
34931;BME280;21134;49.646;8.560;2022-09-13T13:11:21;100013.84;;;23.10;67.63
34931;BME280;21134;49.646;8.560;2022-09-13T13:13:54;100015.34;;;23.14;68.04
34931;BME280;21134;49.646;8.560;2022-09-13T13:16:25;100017.22;;;23.27;67.79
34931;BME280;21134;49.646;8.560;2022-09-13T13:18:54;100021.19;;;23.32;65.45
34931;BME280;21134;49.646;8.560;2022-09-13T13:21:31;100021.75;;;23.52;64.79
34931;BME280;21134;49.646;8.560;2022-09-13T13:24:48;100021.06;;;23.62;65.43